Time;durP1;ratioP1;P1;durP2;ratioP2;P2;SDS_P1;SDS_P2;PMS_P1;PMS_P2;Temp;Humidity;BMP_temperature;BMP_pressure;BME280_temperature;BME280_humidity;BME280_pressure;Samples;Min_cycle;Max_cycle;Signal;HPM_P1;HPM_P2
2023/12/05 00:08:15;;;;;;;103.80;46.80;;;;;;;-5.39;88.60;98470.15;437582;1248;111808;-40
2023/12/05 00:18:22;;;;;;;79.80;41.70;;;;;;;-5.33;88.24;98460.17;437469;1246;109160;-40
2023/12/05 00:28:29;;;;;;;98.00;43.30;;;;;;;-5.30;88.42;98460.56;437405;1248;99292;-40
2023/12/05 00:38:36;;;;;;;88.60;42.60;;;;;;;-5.41;88.20;98462.23;437471;1250;108568;-40
2023/12/05 01:08:54;;;;;;;85.40;41.50;;;;;;;-5.80;88.06;98443.15;437391;1251;107762;-40
2023/12/05 01:19:01;;;;;;;90.80;44.30;;;;;;;-5.93;88.03;98436.70;437623;1250;98797;-39
2023/12/05 01:29:09;;;;;;;79.10;39.40;;;;;;;-5.92;88.47;98440.36;437473;1250;108672;-39
2023/12/05 01:39:16;;;;;;;82.80;43.80;;;;;;;-5.97;87.99;98437.70;437591;1248;99228;-41
2023/12/05 01:49:23;;;;;;;80.90;43.80;;;;;;;-6.15;87.52;98422.61;437535;1250;112061;-40
2023/12/05 01:59:36;;;;;;;90.20;45.50;;;;;;;-6.15;88.02;98412.14;437464;1251;107228;-40
2023/12/05 02:09:40;;;;;;;82.40;42.30;;;;;;;-6.16;87.62;98403.15;437450;1248;99731;-40
2023/12/05 02:19:47;;;;;;;79.80;43.90;;;;;;;-6.09;87.88;98386.62;438300;1250;108423;-40
2023/12/05 02:29:54;;;;;;;89.00;45.10;;;;;;;-6.05;87.97;98390.34;437434;1248;99301;-40
2023/12/05 02:40:05;;;;;;;85.60;44.00;;;;;;;-6.19;87.74;98383.46;437539;1250;111940;-41
2023/12/05 02:50:14;;;;;;;71.40;40.10;;;;;;;-6.13;88.12;98374.58;437456;1248;108701;-39
2023/12/05 03:00:21;;;;;;;73.20;41.50;;;;;;;-5.96;88.05;98365.05;437488;1248;99327;-41
2023/12/05 03:10:28;;;;;;;67.50;38.90;;;;;;;-5.85;88.36;98364.05;437478;1250;109542;-39
2023/12/05 03:20:33;;;;;;;76.50;40.20;;;;;;;-5.71;88.27;98348.89;437481;1248;99237;-39
2023/12/05 03:30:40;;;;;;;76.00;38.70;;;;;;;-5.58;88.35;98343.20;437476;1250;111820;-40
2023/12/05 03:40:48;;;;;;;117.90;54.50;;;;;;;-5.46;88.41;98342.11;437454;1250;107996;-40
2023/12/05 03:50:55;;;;;;;118.80;57.60;;;;;;;-5.44;88.62;98343.32;437598;1250;99205;-40
2023/12/05 04:01:02;;;;;;;187.50;80.30;;;;;;;-5.51;88.51;98341.88;437417;1248;111331;-40
2023/12/05 04:11:07;;;;;;;116.60;57.10;;;;;;;-5.62;88.31;98342.29;437374;1249;108083;-41
2023/12/05 04:21:14;;;;;;;81.50;44.70;;;;;;;-5.67;88.45;98334.35;437391;1249;99327;-40
2023/12/05 04:31:25;;;;;;;77.30;39.70;;;;;;;-5.50;88.33;98330.92;437458;1250;107931;-40
2023/12/05 04:51:37;;;;;;;67.90;35.90;;;;;;;-5.10;88.54;98324.77;437482;1251;110513;-40
2023/12/05 05:01:47;;;;;;;63.20;34.90;;;;;;;-4.98;88.53;98323.52;437500;1259;109352;-39
2023/12/05 05:11:53;;;;;;;96.80;45.60;;;;;;;-4.88;89.11;98326.95;437463;1250;99215;-41
2023/12/05 05:22:00;;;;;;;97.50;45.20;;;;;;;-4.92;88.91;98330.70;437426;1250;111912;-41
2023/12/05 05:32:05;;;;;;;91.40;44.70;;;;;;;-5.17;88.51;98327.95;437599;1251;107181;-40
2023/12/05 05:42:12;;;;;;;106.80;49.50;;;;;;;-5.34;88.51;98319.23;437401;1251;99206;-40
2023/12/05 06:02:26;;;;;;;93.80;47.10;;;;;;;-5.34;88.55;98317.31;437377;1260;107983;-38
2023/12/05 06:22:39;;;;;;;76.30;37.50;;;;;;;-5.01;88.60;98325.31;437239;1257;108188;-39
2023/12/05 06:32:46;;;;;;;76.40;38.70;;;;;;;-4.90;88.67;98330.92;437476;1248;99214;-39
2023/12/05 06:42:53;;;;;;;66.80;35.10;;;;;;;-4.83;88.66;98325.90;437430;1250;112885;-40
2023/12/05 06:53:02;;;;;;;70.70;33.60;;;;;;;-4.87;88.48;98325.99;437505;1269;107762;-40
2023/12/05 07:03:11;;;;;;;69.60;37.80;;;;;;;-4.80;88.58;98325.45;437609;1250;99230;-40
2023/12/05 07:13:19;;;;;;;69.30;34.90;;;;;;;-4.68;88.55;98330.52;437558;1248;106770;-42
2023/12/05 07:23:26;;;;;;;95.50;43.10;;;;;;;-4.60;88.67;98334.33;437532;1251;98033;-40
2023/12/05 07:33:33;;;;;;;108.30;48.90;;;;;;;-4.63;88.42;98328.17;437560;1250;111789;-40
2023/12/05 07:43:41;;;;;;;116.90;49.30;;;;;;;-4.67;88.47;98331.19;437429;1248;106908;-41
2023/12/05 07:53:51;;;;;;;120.50;52.20;;;;;;;-4.59;88.65;98339.67;437584;1249;99100;-40
2023/12/05 08:04:01;;;;;;;118.40;49.90;;;;;;;-4.36;88.82;98337.06;437494;1251;110617;-39
2023/12/05 08:14:07;;;;;;;118.80;53.60;;;;;;;-3.83;89.17;98327.59;437489;1248;107244;-40
2023/12/05 08:34:18;;;;;;;102.50;45.60;;;;;;;-2.59;88.99;98338.54;437621;1248;108568;-40
2023/12/05 08:44:26;;;;;;;105.20;48.90;;;;;;;-1.54;89.21;98340.69;437470;1250;99278;-39
2023/12/05 08:54:32;;;;;;;101.90;50.00;;;;;;;-1.14;88.34;98339.43;437549;1248;110926;-39
2023/12/05 09:14:46;;;;;;;105.60;51.80;;;;;;;-1.25;87.21;98343.73;437618;1250;97974;-40
2023/12/05 09:24:54;;;;;;;92.50;45.40;;;;;;;-1.38;86.99;98342.11;437560;1250;112886;-40
2023/12/05 09:35:02;;;;;;;94.60;47.60;;;;;;;-1.41;86.76;98338.50;437462;1247;108194;-41
2023/12/05 09:45:15;;;;;;;93.70;45.40;;;;;;;-1.22;86.81;98320.48;437537;1248;99240;-40
2023/12/05 09:55:23;;;;;;;94.10;46.90;;;;;;;-1.05;86.39;98309.52;437566;1251;112397;-40
2023/12/05 10:05:35;;;;;;;99.50;47.10;;;;;;;-0.95;86.47;98302.11;437685;1248;107114;-39
2023/12/05 10:25:49;;;;;;;118.00;54.50;;;;;;;-0.54;85.96;98286.08;437502;1250;107238;-40
2023/12/05 10:46:05;;;;;;;134.80;58.80;;;;;;;-0.21;85.68;98262.44;437564;1251;111133;-41
2023/12/05 11:06:25;;;;;;;121.20;59.70;;;;;;;-0.22;85.08;98252.21;437631;1250;99210;-40
2023/12/05 11:16:39;;;;;;;129.00;58.30;;;;;;;-0.28;84.77;98249.02;437659;1248;110148;-41
2023/12/05 11:26:52;;;;;;;122.20;62.40;;;;;;;-0.13;84.93;98249.83;437706;1248;109353;-40
2023/12/05 11:37:00;;;;;;;137.60;63.40;;;;;;;-0.23;84.10;98252.52;437875;1250;99212;-40
2023/12/05 11:47:10;;;;;;;119.80;58.20;;;;;;;-0.29;83.74;98241.91;437659;1247;111342;-40
2023/12/05 11:57:15;;;;;;;121.60;58.20;;;;;;;-0.22;83.87;98245.43;437637;1248;107209;-39
2023/12/05 12:07:22;;;;;;;109.90;50.90;;;;;;;-0.26;83.54;98242.42;437762;1251;97929;-40
2023/12/05 12:17:29;;;;;;;112.00;51.70;;;;;;;-0.20;83.71;98235.20;437589;1248;111878;-41
2023/12/05 12:27:35;;;;;;;94.90;45.80;;;;;;;-0.20;83.51;98225.51;437613;1250;107607;-40
2023/12/05 12:37:43;;;;;;;93.80;45.00;;;;;;;-0.26;83.52;98232.36;437495;1250;99235;-39
2023/12/05 12:48:00;;;;;;;94.20;43.60;;;;;;;-0.43;83.49;98233.71;437166;1250;564162;-40
2023/12/05 12:58:07;;;;;;;108.10;50.10;;;;;;;-0.59;83.19;98224.77;437617;1250;107614;-40
2023/12/05 13:08:15;;;;;;;72.10;39.00;;;;;;;-0.75;83.13;98229.77;437498;1247;98020;-40
2023/12/05 13:18:23;;;;;;;85.20;42.20;;;;;;;-0.73;83.38;98226.42;437536;1248;111887;-41
2023/12/05 13:38:34;;;;;;;91.50;47.30;;;;;;;-1.02;83.62;98229.33;436643;1251;99227;-40
2023/12/05 13:58:48;;;;;;;92.70;42.00;;;;;;;-1.69;83.68;98221.62;436543;1251;107746;-41
2023/12/05 14:08:55;;;;;;;80.70;39.00;;;;;;;-2.02;83.47;98230.84;436389;1248;99234;-39
2023/12/05 14:19:02;;;;;;;118.80;44.90;;;;;;;-2.30;83.75;98242.15;436495;1251;111190;-39
2023/12/05 14:29:10;;;;;;;112.60;46.00;;;;;;;-2.62;83.79;98250.22;437674;1247;107731;-40
2023/12/05 14:49:22;;;;;;;89.40;41.50;;;;;;;-2.97;83.78;98276.83;437402;1251;107836;-39
2023/12/05 14:59:29;;;;;;;148.30;65.50;;;;;;;-3.14;83.88;98279.88;437597;1247;99284;-40
2023/12/05 15:19:43;;;;;;;151.30;66.00;;;;;;;-3.74;84.12;98288.86;437522;1246;108716;-41
2023/12/05 15:30:12;;;;;;;149.30;67.70;;;;;;;-3.99;84.26;98288.69;437642;1248;99208;-40
2023/12/05 16:00:32;;;;;;;120.00;68.60;;;;;;;-4.34;84.80;98295.21;437653;1248;99209;-38
2023/12/05 16:10:42;;;;;;;127.20;68.10;;;;;;;-4.28;84.66;98293.69;437679;1250;107236;-40
2023/12/05 16:30:55;;;;;;;181.10;78.90;;;;;;;-4.04;85.44;98287.70;437598;1250;111206;-40
2023/12/05 16:41:03;;;;;;;173.60;74.60;;;;;;;-4.10;85.50;98286.27;437493;1248;108128;-40
2023/12/05 17:01:13;;;;;;;205.90;93.80;;;;;;;-4.39;85.23;98274.35;437508;1251;111700;-40
2023/12/05 17:11:21;;;;;;;201.50;90.60;;;;;;;-4.59;85.44;98262.63;437563;1248;108305;-40
2023/12/05 17:21:28;;;;;;;219.90;88.80;;;;;;;-4.76;85.43;98271.79;437497;1248;99316;-41
2023/12/05 17:31:35;;;;;;;149.30;76.30;;;;;;;-5.05;84.88;98286.30;437520;1251;108680;-40
2023/12/05 17:51:49;;;;;;;160.80;76.10;;;;;;;-5.29;84.96;98290.70;437662;1250;111425;-41
2023/12/05 18:01:56;;;;;;;176.30;83.70;;;;;;;-5.39;85.26;98288.10;437590;1250;106667;-39
2023/12/05 18:12:05;;;;;;;190.60;93.20;;;;;;;-5.63;85.23;98295.48;437677;1248;99205;-39
2023/12/05 18:22:14;;;;;;;172.70;75.60;;;;;;;-5.81;85.24;98295.89;437668;1250;107922;-41
2023/12/05 18:32:21;;;;;;;139.60;70.10;;;;;;;-5.97;84.80;98301.42;437550;1250;99289;-40
2023/12/05 18:42:28;;;;;;;123.00;62.10;;;;;;;-6.16;84.74;98316.52;437503;1250;111954;-38
2023/12/05 18:52:34;;;;;;;121.90;60.60;;;;;;;-6.29;84.60;98314.31;437580;1250;107387;-42
2023/12/05 19:02:42;;;;;;;127.70;67.60;;;;;;;-6.34;85.15;98306.95;437631;1247;99236;-41
2023/12/05 19:12:46;;;;;;;170.70;76.50;;;;;;;-6.11;85.60;98309.21;437643;1250;107617;-40
2023/12/05 19:22:53;;;;;;;160.90;78.40;;;;;;;-6.12;85.15;98314.28;437611;1251;99198;-40
2023/12/05 19:33:01;;;;;;;205.50;89.20;;;;;;;-6.19;85.11;98315.20;437635;1250;111197;-39
2023/12/05 19:43:08;;;;;;;196.20;90.50;;;;;;;-6.27;84.79;98319.81;437554;1250;107407;-41
2023/12/05 20:03:22;;;;;;;281.60;122.40;;;;;;;-5.83;85.96;98293.02;437566;1247;107492;-40
2023/12/05 20:13:30;;;;;;;198.00;97.40;;;;;;;-5.52;86.22;98303.13;437679;1250;99204;-40
2023/12/05 20:23:37;;;;;;;171.40;85.50;;;;;;;-5.29;86.27;98301.73;437608;1250;111922;-40
2023/12/05 20:33:43;;;;;;;202.60;90.30;;;;;;;-5.06;86.31;98302.39;437555;1248;107740;-40
2023/12/05 20:43:51;;;;;;;277.20;110.70;;;;;;;-4.90;86.39;98296.86;437593;1248;99205;-40
2023/12/05 20:53:58;;;;;;;198.40;88.70;;;;;;;-4.93;86.32;98304.52;437516;1250;111479;-40
2023/12/05 21:04:05;;;;;;;193.10;85.70;;;;;;;-5.01;86.41;98313.09;437609;1250;107801;-39
2023/12/05 21:14:11;;;;;;;212.80;92.70;;;;;;;-4.98;86.72;98315.05;437347;1250;99040;-40
2023/12/05 21:24:19;;;;;;;214.20;85.00;;;;;;;-4.89;86.64;98316.73;437618;1250;110867;-40
2023/12/05 21:34:28;;;;;;;207.20;87.70;;;;;;;-4.73;86.98;98308.14;437520;1248;107066;-41
2023/12/05 21:44:34;;;;;;;134.70;60.60;;;;;;;-4.47;87.10;98311.03;437559;1250;99246;-39
2023/12/05 21:54:41;;;;;;;119.60;54.90;;;;;;;-4.20;87.04;98310.77;437330;1250;107147;-40
2023/12/05 22:04:48;;;;;;;155.40;64.70;;;;;;;-4.01;87.32;98316.95;437497;1251;99101;-40
2023/12/05 22:14:55;;;;;;;166.70;69.10;;;;;;;-3.96;87.48;98322.95;437738;1250;111817;-40
2023/12/05 22:35:11;;;;;;;103.00;48.00;;;;;;;-3.77;87.43;98313.16;437569;1250;98010;-40
2023/12/05 22:45:18;;;;;;;110.50;48.50;;;;;;;-3.56;87.47;98316.71;437588;1250;110339;-41
2023/12/05 22:55:25;;;;;;;151.10;64.20;;;;;;;-3.47;87.54;98320.45;437620;1248;107082;-39
2023/12/05 23:15:38;;;;;;;151.00;62.70;;;;;;;-3.54;87.76;98322.38;437500;1250;111820;-40
2023/12/05 23:25:44;;;;;;;164.10;64.80;;;;;;;-3.52;87.65;98323.25;437557;1250;109214;-39
2023/12/05 23:35:51;;;;;;;210.00;86.30;;;;;;;-3.48;87.86;98325.77;437395;1250;97969;-40
2023/12/05 23:45:58;;;;;;;222.60;88.70;;;;;;;-3.48;87.76;98331.13;437364;1251;108114;-40
2023/12/05 23:56:04;;;;;;;129.00;61.40;;;;;;;-3.44;87.76;98325.54;437458;1248;99253;-40
